MSC Cordoba — A8OF8 — position and weather

sailwx.info

Track history (hours):
 
Tides and Currents Weather Stations Pressure Air Temp Water Temp Dewpoint Dewpoint Depression Visibility Wind Speed Wind Dir Waves Ship Positions

MSC Cordoba

Last reported at 2016-Jul-27 05:31 UTC. Time now 2016-Jul-27 05:45 UTC.
Position N 35°55' W 005°39'.

Length 274 m; draft 10.5 m.

Type: Ship (hazmat cat A). MMSI: 636091473.

Date/timePositionNaut miles runAvg speedWind from/ knotsBaromVisibWave heightAir tempDewpointWater temp
2016-Jul-27 05:31N 35°55' W 005°39'6020.2
2016-Jul-27 02:33N 36°03' W 006°53'2121.2
2016-Jul-27 01:33N 36°10' W 007°18'2121.4
2016-Jul-27 00:33N 36°15' W 007°44'2120.9
2016-Jul-26 23:33N 36°19' W 008°09'2121.0
2016-Jul-26 22:33N 36°24' W 008°34'2120.8
2016-Jul-26 21:33N 36°30' W 008°59'2020.2
2016-Jul-26 20:33N 36°37' W 009°23'2020.7
2016-Jul-26 19:34N 36°55' W 009°36'2121.1
2016-Jul-26 18:34N 37°15' W 009°42'2121.3
2016-Jul-26 17:34N 37°36' W 009°47'2221.1
2016-Jul-26 16:32N 37°57' W 009°54'2121.6
2016-Jul-26 15:33N 38°18' W 009°60'2121.7
2016-Jul-26 14:34N 38°39' W 010°06'4821.5
2016-Jul-26 12:20N 39°27' W 010°09'37820.6
2016-Jul-25 18:00N 45°36' W 008°18'32218.5 040 / 101025.427.0 0.529.712.620.1
2016-Jul-25 00:33N 49°50' W 003°23'1817.8
2016-Jul-24 23:33N 49°58' W 002°59'7617.3
2016-Jul-24 19:11N 50°17' W 001°04'1321.1
2016-Jul-24 18:33N 50°21' W 000°44'2020.7
2016-Jul-24 17:34N 50°26' W 000°13'2020.2
2016-Jul-24 16:33N 50°32' E 000°18'2018.9
2016-Jul-24 15:30N 50°40' E 000°47'3417.2
2016-Jul-24 13:32N 51°02' E 001°27'1818.3
2016-Jul-24 12:33N 51°15' E 001°46'1716.6
2016-Jul-24 11:33N 51°23' E 002°10'1918.5
2016-Jul-24 10:31N 51°22' E 002°40'1515.8
2016-Jul-24 09:33N 51°24' E 003°05'1818.2
2016-Jul-24 08:34N 51°26' E 003°34'1110.8
2016-Jul-24 07:34N 51°21' E 003°49'1110.6
2016-Jul-24 06:33N 51°22' E 004°06'7 7.1
2016-Jul-24 05:34N 51°21' E 004°17'0 0.3
2016-Jul-24 04:33N 51°21' E 004°18'2 1.9
2016-Jul-24 03:32N 51°20' E 004°20'0 0.0
2016-Jul-24 02:31N 51°20' E 004°20'0 0.0
2016-Jul-24 01:28N 51°20' E 004°20'0 0.0
2016-Jul-24 00:31N 51°20' E 004°20'0 0.0
2016-Jul-23 23:27N 51°20' E 004°20'0 0.0
2016-Jul-23 22:30N 51°20' E 004°20'0 0.0
2016-Jul-23 21:29N 51°20' E 004°20'0 0.0
2016-Jul-23 20:14N 51°20' E 004°20'0 0.0
2016-Jul-23 19:28N 51°20' E 004°20'0 0.0
2016-Jul-23 18:25N 51°20' E 004°20'0 0.0
2016-Jul-23 17:27N 51°20' E 004°20'0 0.0
2016-Jul-23 16:33N 51°20' E 004°20'0 0.0
2016-Jul-23 15:33N 51°20' E 004°20'0 0.0
2016-Jul-23 14:32N 51°20' E 004°20'0 0.0
2016-Jul-23 13:32N 51°20' E 004°20'0 0.0
2016-Jul-23 12:19N 51°20' E 004°20'0 0.0
2016-Jul-23 11:31N 51°20' E 004°20'0 0.0
2016-Jul-23 10:34N 51°20' E 004°20'0 0.0
2016-Jul-23 09:33N 51°20' E 004°20'0 0.0
2016-Jul-23 08:30N 51°20' E 004°20'0 0.0
2016-Jul-23 07:32N 51°20' E 004°20'0 0.0
2016-Jul-23 06:32N 51°20' E 004°20'0 0.0
2016-Jul-23 04:31N 51°20' E 004°20'0 0.0
2016-Jul-23 03:33N 51°20' E 004°20'0 0.0
2016-Jul-23 02:30N 51°20' E 004°20'0 0.0
2016-Jul-23 01:33N 51°20' E 004°20'0 0.0
2016-Jul-23 00:32N 51°20' E 004°20'0 0.0
2016-Jul-22 23:32N 51°20' E 004°20'0 0.0
2016-Jul-22 22:28N 51°20' E 004°20'0 0.0
2016-Jul-22 21:31N 51°20' E 004°20'0 0.0
2016-Jul-22 20:33N 51°20' E 004°20'1 1.2
2016-Jul-22 19:33N 51°20' E 004°18'1 1.1
2016-Jul-22 18:33N 51°21' E 004°17'2 2.4
2016-Jul-22 17:33N 51°22' E 004°14'8 8.0
2016-Jul-22 16:33N 51°25' E 004°02'1110.9
2016-Jul-22 15:33N 51°22' E 003°45'9 9.3
2016-Jul-22 14:33N 51°25' E 003°31'1817.3
2016-Jul-22 13:33N 51°24' E 003°03'1313.2
2016-Jul-22 12:33N 51°22' E 002°42'8 7.8
2016-Jul-22 11:33N 51°22' E 002°30'7 7.4
2016-Jul-22 10:33N 51°19' E 002°19'7 7.2
2016-Jul-22 09:33N 51°20' E 002°07'1010.3
2016-Jul-22 08:33N 51°27' E 001°55'1817.9
2016-Jul-22 07:33N 51°43' E 001°44'2110.6
2016-Jul-22 05:33N 51°57' E 001°18'1 0.6
2016-Jul-22 04:33N 51°57' E 001°18'0 0.0
2016-Jul-22 03:33N 51°57' E 001°18'0 0.0
2016-Jul-22 02:33N 51°57' E 001°18'0 0.0
2016-Jul-22 01:32N 51°57' E 001°18'0 0.0
2016-Jul-22 00:32N 51°57' E 001°18'0 0.0
2016-Jul-21 23:31N 51°57' E 001°18'0 0.0
2016-Jul-21 22:31N 51°57' E 001°18'0 0.0
2016-Jul-21 21:33N 51°57' E 001°18'0 0.0
2016-Jul-21 20:33N 51°57' E 001°18'0 0.0
2016-Jul-21 19:33N 51°57' E 001°18'0 0.0
2016-Jul-21 18:32N 51°57' E 001°18'0 0.0
2016-Jul-21 17:29N 51°57' E 001°18'0 0.0
2016-Jul-21 16:31N 51°57' E 001°18'0 0.0
2016-Jul-21 15:34N 51°57' E 001°18'0 0.0
2016-Jul-21 14:34N 51°57' E 001°18'0 0.0
2016-Jul-21 13:33N 51°57' E 001°18'0 0.0
2016-Jul-21 12:34N 51°57' E 001°18'0 0.0
2016-Jul-21 11:34N 51°57' E 001°18'0 0.0
2016-Jul-21 10:34N 51°57' E 001°18'0 0.0
2016-Jul-21 09:34N 51°57' E 001°18'0 0.0
2016-Jul-21 08:34N 51°57' E 001°18'1 1.0
2016-Jul-21 07:34N 51°57' E 001°19'10 9.7
2016-Jul-21 06:33N 51°54' E 001°34'6 6.3
2016-Jul-21 05:33N 51°53' E 001°44'4 4.4
2016-Jul-21 04:33N 51°50' E 001°49'7 7.2
2016-Jul-21 03:33N 51°43' E 001°49'7 7.0
2016-Jul-21 02:33N 51°36' E 001°50'5 5.3
2016-Jul-21 01:34N 51°31' E 001°48'1717.0
2016-Jul-21 00:33N 51°15' E 001°40'1716.8
2016-Jul-20 23:33N 50°59' E 001°29'2419.8
2016-Jul-20 22:22N 50°38' E 001°12'1819.5
2016-Jul-20 21:26N 50°29' E 000°47'1820.8
2016-Jul-20 20:33N 50°25' E 000°20'2120.7
2016-Jul-20 19:33N 50°19' W 000°12'2020.3
2016-Jul-20 18:33N 50°14' W 000°42'1919.3
2016-Jul-20 17:33N 50°10' W 001°12'1817.8
2016-Jul-20 16:33N 50°06' W 001°39'2116.3
2016-Jul-20 15:15N 50°01' W 002°11'1113.2
2016-Jul-20 14:25N 49°55' W 002°26'1010.9
2016-Jul-20 13:30N 49°52' W 002°41'1212.2
2016-Jul-20 12:33N 49°49' W 002°58'1515.1
2016-Jul-20 11:33N 49°42' W 003°18'7416.9
2016-Jul-20 07:11N 49°00' W 004°51'4616.5
2016-Jul-20 04:24N 48°31' W 005°46'3813.4
2016-Jul-20 01:33N 47°57' W 006°11'16 7.9
2016-Jul-19 23:30N 47°42' W 006°19'10 7.6
2016-Jul-19 22:12N 47°33' W 006°25'26 8.3
2016-Jul-19 19:07N 47°11' W 006°44'813.7
2016-Jul-19 18:33N 47°04' W 006°51'1717.6
2016-Jul-19 17:33N 46°49' W 007°03'19513.5
2016-Jul-19 03:08N 43°57' W 009°13'23916.3
2016-Jul-18 12:30N 39°59' W 009°49'5316.6
2016-Jul-18 09:19N 39°07' W 009°51'1316.8
2016-Jul-18 08:33N 38°54' W 009°52'1616.5
2016-Jul-18 07:33N 38°37' W 009°50'1817.6
2016-Jul-18 06:32N 38°20' W 009°45'1717.3
2016-Jul-18 05:33N 38°03' W 009°40'1717.0
2016-Jul-18 04:32N 37°47' W 009°35'1716.7
2016-Jul-18 03:33N 37°30' W 009°31'1717.0
2016-Jul-18 02:32N 37°14' W 009°26'1717.2
2016-Jul-18 01:33N 36°57' W 009°21'1716.7
2016-Jul-18 00:32N 36°45' W 009°06'1717.3
2016-Jul-17 23:32N 36°40' W 008°46'9317.1
2016-Jul-17 18:05N 36°09' W 006°56'6617.1
2016-Jul-17 14:13N 35°57' W 005°36'1319.0
2016-Jul-17 13:33N 36°01' W 005°21'  
Track history (hours):
 
Tides and Currents Weather Stations Pressure Air Temp Water Temp Dewpoint Dewpoint Depression Visibility Wind Speed Wind Dir Waves Ship Positions

MSC Cordoba

Last reported at 2016-Jul-27 05:31 UTC. Time now 2016-Jul-27 05:45 UTC.
Position N 35°55' W 005°39'.

Length 274 m; draft 10.5 m.

Type: Ship (hazmat cat A). MMSI: 636091473.

Date/timePositionNaut miles runAvg speedWind from/ knotsBaromVisibWave heightAir tempDewpointWater temp
2016-Jul-27 05:31N 35°55' W 005°39'6020.2
2016-Jul-27 02:33N 36°03' W 006°53'2121.2
2016-Jul-27 01:33N 36°10' W 007°18'2121.4
2016-Jul-27 00:33N 36°15' W 007°44'2120.9
2016-Jul-26 23:33N 36°19' W 008°09'2121.0
2016-Jul-26 22:33N 36°24' W 008°34'2120.8
2016-Jul-26 21:33N 36°30' W 008°59'2020.2
2016-Jul-26 20:33N 36°37' W 009°23'2020.7
2016-Jul-26 19:34N 36°55' W 009°36'2121.1
2016-Jul-26 18:34N 37°15' W 009°42'2121.3
2016-Jul-26 17:34N 37°36' W 009°47'2221.1
2016-Jul-26 16:32N 37°57' W 009°54'2121.6
2016-Jul-26 15:33N 38°18' W 009°60'2121.7
2016-Jul-26 14:34N 38°39' W 010°06'4821.5
2016-Jul-26 12:20N 39°27' W 010°09'37820.6
2016-Jul-25 18:00N 45°36' W 008°18'32218.5 040 / 101025.427.0 0.529.712.620.1
2016-Jul-25 00:33N 49°50' W 003°23'1817.8
2016-Jul-24 23:33N 49°58' W 002°59'7617.3
2016-Jul-24 19:11N 50°17' W 001°04'1321.1
2016-Jul-24 18:33N 50°21' W 000°44'2020.7
2016-Jul-24 17:34N 50°26' W 000°13'2020.2
2016-Jul-24 16:33N 50°32' E 000°18'2018.9
2016-Jul-24 15:30N 50°40' E 000°47'3417.2
2016-Jul-24 13:32N 51°02' E 001°27'1818.3
2016-Jul-24 12:33N 51°15' E 001°46'1716.6
2016-Jul-24 11:33N 51°23' E 002°10'1918.5
2016-Jul-24 10:31N 51°22' E 002°40'1515.8
2016-Jul-24 09:33N 51°24' E 003°05'1818.2
2016-Jul-24 08:34N 51°26' E 003°34'1110.8
2016-Jul-24 07:34N 51°21' E 003°49'1110.6
2016-Jul-24 06:33N 51°22' E 004°06'7 7.1
2016-Jul-24 05:34N 51°21' E 004°17'0 0.3
2016-Jul-24 04:33N 51°21' E 004°18'2 1.9
2016-Jul-24 03:32N 51°20' E 004°20'0 0.0
2016-Jul-24 02:31N 51°20' E 004°20'0 0.0
2016-Jul-24 01:28N 51°20' E 004°20'0 0.0
2016-Jul-24 00:31N 51°20' E 004°20'0 0.0
2016-Jul-23 23:27N 51°20' E 004°20'0 0.0
2016-Jul-23 22:30N 51°20' E 004°20'0 0.0
2016-Jul-23 21:29N 51°20' E 004°20'0 0.0
2016-Jul-23 20:14N 51°20' E 004°20'0 0.0
2016-Jul-23 19:28N 51°20' E 004°20'0 0.0
2016-Jul-23 18:25N 51°20' E 004°20'0 0.0
2016-Jul-23 17:27N 51°20' E 004°20'0 0.0
2016-Jul-23 16:33N 51°20' E 004°20'0 0.0
2016-Jul-23 15:33N 51°20' E 004°20'0 0.0
2016-Jul-23 14:32N 51°20' E 004°20'0 0.0
2016-Jul-23 13:32N 51°20' E 004°20'0 0.0
2016-Jul-23 12:19N 51°20' E 004°20'0 0.0
2016-Jul-23 11:31N 51°20' E 004°20'0 0.0
2016-Jul-23 10:34N 51°20' E 004°20'0 0.0
2016-Jul-23 09:33N 51°20' E 004°20'0 0.0
2016-Jul-23 08:30N 51°20' E 004°20'0 0.0
2016-Jul-23 07:32N 51°20' E 004°20'0 0.0
2016-Jul-23 06:32N 51°20' E 004°20'0 0.0
2016-Jul-23 04:31N 51°20' E 004°20'0 0.0
2016-Jul-23 03:33N 51°20' E 004°20'0 0.0
2016-Jul-23 02:30N 51°20' E 004°20'0 0.0
2016-Jul-23 01:33N 51°20' E 004°20'0 0.0
2016-Jul-23 00:32N 51°20' E 004°20'0 0.0
2016-Jul-22 23:32N 51°20' E 004°20'0 0.0
2016-Jul-22 22:28N 51°20' E 004°20'0 0.0
2016-Jul-22 21:31N 51°20' E 004°20'0 0.0
2016-Jul-22 20:33N 51°20' E 004°20'1 1.2
2016-Jul-22 19:33N 51°20' E 004°18'1 1.1
2016-Jul-22 18:33N 51°21' E 004°17'2 2.4
2016-Jul-22 17:33N 51°22' E 004°14'8 8.0
2016-Jul-22 16:33N 51°25' E 004°02'1110.9
2016-Jul-22 15:33N 51°22' E 003°45'9 9.3
2016-Jul-22 14:33N 51°25' E 003°31'1817.3
2016-Jul-22 13:33N 51°24' E 003°03'1313.2
2016-Jul-22 12:33N 51°22' E 002°42'8 7.8
2016-Jul-22 11:33N 51°22' E 002°30'7 7.4
2016-Jul-22 10:33N 51°19' E 002°19'7 7.2
2016-Jul-22 09:33N 51°20' E 002°07'1010.3
2016-Jul-22 08:33N 51°27' E 001°55'1817.9
2016-Jul-22 07:33N 51°43' E 001°44'2110.6
2016-Jul-22 05:33N 51°57' E 001°18'1 0.6
2016-Jul-22 04:33N 51°57' E 001°18'0 0.0
2016-Jul-22 03:33N 51°57' E 001°18'0 0.0
2016-Jul-22 02:33N 51°57' E 001°18'0 0.0
2016-Jul-22 01:32N 51°57' E 001°18'0 0.0
2016-Jul-22 00:32N 51°57' E 001°18'0 0.0
2016-Jul-21 23:31N 51°57' E 001°18'0 0.0
2016-Jul-21 22:31N 51°57' E 001°18'0 0.0
2016-Jul-21 21:33N 51°57' E 001°18'0 0.0
2016-Jul-21 20:33N 51°57' E 001°18'0 0.0
2016-Jul-21 19:33N 51°57' E 001°18'0 0.0
2016-Jul-21 18:32N 51°57' E 001°18'0 0.0
2016-Jul-21 17:29N 51°57' E 001°18'0 0.0
2016-Jul-21 16:31N 51°57' E 001°18'0 0.0
2016-Jul-21 15:34N 51°57' E 001°18'0 0.0
2016-Jul-21 14:34N 51°57' E 001°18'0 0.0
2016-Jul-21 13:33N 51°57' E 001°18'0 0.0
2016-Jul-21 12:34N 51°57' E 001°18'0 0.0
2016-Jul-21 11:34N 51°57' E 001°18'0 0.0
2016-Jul-21 10:34N 51°57' E 001°18'0 0.0
2016-Jul-21 09:34N 51°57' E 001°18'0 0.0
2016-Jul-21 08:34N 51°57' E 001°18'1 1.0
2016-Jul-21 07:34N 51°57' E 001°19'10 9.7
2016-Jul-21 06:33N 51°54' E 001°34'6 6.3
2016-Jul-21 05:33N 51°53' E 001°44'4 4.4
2016-Jul-21 04:33N 51°50' E 001°49'7 7.2
2016-Jul-21 03:33N 51°43' E 001°49'7 7.0
2016-Jul-21 02:33N 51°36' E 001°50'5 5.3
2016-Jul-21 01:34N 51°31' E 001°48'1717.0
2016-Jul-21 00:33N 51°15' E 001°40'1716.8
2016-Jul-20 23:33N 50°59' E 001°29'2419.8
2016-Jul-20 22:22N 50°38' E 001°12'1819.5
2016-Jul-20 21:26N 50°29' E 000°47'1820.8
2016-Jul-20 20:33N 50°25' E 000°20'2120.7
2016-Jul-20 19:33N 50°19' W 000°12'2020.3
2016-Jul-20 18:33N 50°14' W 000°42'1919.3
2016-Jul-20 17:33N 50°10' W 001°12'1817.8
2016-Jul-20 16:33N 50°06' W 001°39'2116.3
2016-Jul-20 15:15N 50°01' W 002°11'1113.2
2016-Jul-20 14:25N 49°55' W 002°26'1010.9
2016-Jul-20 13:30N 49°52' W 002°41'1212.2
2016-Jul-20 12:33N 49°49' W 002°58'1515.1
2016-Jul-20 11:33N 49°42' W 003°18'7416.9
2016-Jul-20 07:11N 49°00' W 004°51'4616.5
2016-Jul-20 04:24N 48°31' W 005°46'3813.4
2016-Jul-20 01:33N 47°57' W 006°11'16 7.9
2016-Jul-19 23:30N 47°42' W 006°19'10 7.6
2016-Jul-19 22:12N 47°33' W 006°25'26 8.3
2016-Jul-19 19:07N 47°11' W 006°44'813.7
2016-Jul-19 18:33N 47°04' W 006°51'1717.6
2016-Jul-19 17:33N 46°49' W 007°03'19513.5
2016-Jul-19 03:08N 43°57' W 009°13'23916.3
2016-Jul-18 12:30N 39°59' W 009°49'5316.6
2016-Jul-18 09:19N 39°07' W 009°51'1316.8
2016-Jul-18 08:33N 38°54' W 009°52'1616.5
2016-Jul-18 07:33N 38°37' W 009°50'1817.6
2016-Jul-18 06:32N 38°20' W 009°45'1717.3
2016-Jul-18 05:33N 38°03' W 009°40'1717.0
2016-Jul-18 04:32N 37°47' W 009°35'1716.7
2016-Jul-18 03:33N 37°30' W 009°31'1717.0
2016-Jul-18 02:32N 37°14' W 009°26'1717.2
2016-Jul-18 01:33N 36°57' W 009°21'1716.7
2016-Jul-18 00:32N 36°45' W 009°06'1717.3
2016-Jul-17 23:32N 36°40' W 008°46'9317.1
2016-Jul-17 18:05N 36°09' W 006°56'6617.1
2016-Jul-17 14:13N 35°57' W 005°36'1319.0
2016-Jul-17 13:33N 36°01' W 005°21'  

Dump ship's entire track history